Terminal Aerodrome Forecast
Issued by NWS

Home | Current Version | Previous Version | Text Only | Print | Product List | Glossary On
Versions: 1 2 3 4 5 6 7 8 9 10 11 12 13 14 15 16 17 18 19 20
043
FTUS41 KBGM 080536
TAFELM
TAF
KELM 080536Z 0806/0906 24005KT P6SM BKN090
     FM081400 25009G16KT P6SM BKN050
     FM082300 26009KT P6SM BKN040=

USA.gov is the U.S. government's official web portal to all federal, state and local government web resources and services.